ALZ991 LEZL-LEVT

Flight info

Callsign ALZ991
Flight time 0h 58m
Altitude 34000
Route HIJ M30 PARKA N858 DGO
Aircraft CRJX/M-SDFGIRWY/S

Departure

Time 2026-05-09 07:40
Airport Seville Airport (LEZL)

Arrival

Time 2026-05-09 08:39
Airport Vitoria Airport (LEVT)
Time Latitude Longitude Altitude Speed Heading
2026-05-09 07:24 37.42336 -5.89572 110 ft 0 kts 45°
2026-05-09 07:35 37.42340 -5.89563 110 ft 2 kts 75°
2026-05-09 07:35 37.42313 -5.89540 110 ft 8 kts 176°
2026-05-09 07:35 37.42247 -5.89502 110 ft 13 kts 139°
2026-05-09 07:36 37.42170 -5.89429 110 ft 12 kts 190°
2026-05-09 07:36 37.42088 -5.89471 110 ft 9 kts 166°
2026-05-09 07:36 37.42021 -5.89407 110 ft 14 kts 138°
2026-05-09 07:36 37.41984 -5.89263 110 ft 20 kts 91°
2026-05-09 07:37 37.41985 -5.89062 110 ft 25 kts 90°
2026-05-09 07:37 37.41984 -5.88815 110 ft 30 kts 90°
2026-05-09 07:37 37.41983 -5.88524 110 ft 34 kts 90°
2026-05-09 07:37 37.41984 -5.88204 110 ft 38 kts 91°
2026-05-09 07:38 37.41978 -5.87845 110 ft 42 kts 91°
2026-05-09 07:38 37.41984 -5.87500 110 ft 29 kts 91°
2026-05-09 07:38 37.41946 -5.87308 110 ft 16 kts 156°
2026-05-09 07:38 37.41868 -5.87347 110 ft 10 kts 224°
2026-05-09 07:39 37.41822 -5.87409 110 ft 9 kts 229°
2026-05-09 07:39 37.41799 -5.87508 110 ft 0 kts 270°
2026-05-09 07:39 37.41799 -5.87534 110 ft 17 kts 270°
2026-05-09 07:40 37.41796 -5.88004 110 ft 89 kts 269°
2026-05-09 07:40 37.41798 -5.89074 110 ft 153 kts 269°
2026-05-09 07:40 37.41859 -5.90532 802 ft 169 kts 278°
2026-05-09 07:40 37.42240 -5.91968 1699 ft 177 kts 299°
2026-05-09 07:41 37.43048 -5.93137 2652 ft 179 kts 323°
2026-05-09 07:41 37.44163 -5.93907 3301 ft 200 kts 339°
2026-05-09 07:41 37.45506 -5.94327 4209 ft 204 kts 348°
2026-05-09 07:41 37.46782 -5.94953 5174 ft 206 kts 333°
2026-05-09 07:42 37.48041 -5.96040 5683 ft 234 kts 320°
2026-05-09 07:42 37.49288 -5.97522 6260 ft 260 kts 314°
2026-05-09 07:42 37.50581 -5.99312 6924 ft 284 kts 310°
2026-05-09 07:42 37.51849 -6.01203 7751 ft 286 kts 309°
2026-05-09 07:43 37.53095 -6.03120 8570 ft 286 kts 308°
2026-05-09 07:43 37.54345 -6.05078 9401 ft 285 kts 308°
2026-05-09 07:43 37.55562 -6.06998 10216 ft 284 kts 308°
2026-05-09 07:43 37.56840 -6.08988 11052 ft 302 kts 311°
2026-05-09 07:44 37.58626 -6.10473 11895 ft 318 kts 342°
2026-05-09 07:44 37.60834 -6.10680 12744 ft 331 kts 11°
2026-05-09 07:44 37.62951 -6.09509 13595 ft 342 kts 38°
2026-05-09 07:44 37.64650 -6.07374 14453 ft 354 kts 47°
2026-05-09 07:45 37.66437 -6.05186 15284 ft 367 kts 43°
2026-05-09 07:45 37.68329 -6.03020 16109 ft 378 kts 43°
2026-05-09 07:45 37.70310 -6.00797 16942 ft 386 kts 42°
2026-05-09 07:45 37.72346 -5.98527 17776 ft 394 kts 42°
2026-05-09 07:46 37.74386 -5.96255 18597 ft 400 kts 42°
2026-05-09 07:46 37.76487 -5.93916 19428 ft 406 kts 42°
2026-05-09 07:46 37.78625 -5.91534 20262 ft 412 kts 42°
2026-05-09 07:46 37.80769 -5.89145 21086 ft 416 kts 42°
2026-05-09 07:47 37.82944 -5.86719 21915 ft 419 kts 42°
2026-05-09 07:47 37.85141 -5.84266 22746 ft 422 kts 42°
2026-05-09 07:47 37.87323 -5.81826 23568 ft 424 kts 42°
2026-05-09 07:47 37.89540 -5.79346 24399 ft 425 kts 42°
2026-05-09 07:48 37.91722 -5.76898 25216 ft 425 kts 42°
2026-05-09 07:48 37.93943 -5.74405 26047 ft 424 kts 42°
2026-05-09 07:48 37.96131 -5.71950 26867 ft 423 kts 42°
2026-05-09 07:48 37.98304 -5.69510 27592 ft 424 kts 42°
2026-05-09 07:49 38.00535 -5.67003 28148 ft 428 kts 42°
2026-05-09 07:49 38.02774 -5.64485 28702 ft 432 kts 42°
2026-05-09 07:49 38.05011 -5.61968 29251 ft 436 kts 42°
2026-05-09 07:49 38.07304 -5.59385 29809 ft 439 kts 42°
2026-05-09 07:50 38.09555 -5.56847 30354 ft 442 kts 42°
2026-05-09 07:50 38.11856 -5.54252 30905 ft 443 kts 42°
2026-05-09 07:50 38.14172 -5.51637 31457 ft 445 kts 42°
2026-05-09 07:50 38.16459 -5.49054 32001 ft 445 kts 42°
2026-05-09 07:51 38.18785 -5.46422 32554 ft 445 kts 42°
2026-05-09 07:51 38.21088 -5.43816 33102 ft 444 kts 42°
2026-05-09 07:51 38.23358 -5.41245 33643 ft 442 kts 42°
2026-05-09 07:51 38.25656 -5.38639 33858 ft 449 kts 42°
2026-05-09 07:52 38.28029 -5.35944 33873 ft 459 kts 42°
2026-05-09 07:52 38.32877 -5.30433 33873 ft 472 kts 43°
2026-05-09 07:53 38.37764 -5.24868 33870 ft 470 kts 43°
2026-05-09 07:53 38.42619 -5.19328 33889 ft 467 kts 43°
2026-05-09 07:54 38.47457 -5.13835 33881 ft 465 kts 39°
2026-05-09 07:54 38.50254 -5.11839 33884 ft 462 kts 19°
2026-05-09 07:54 38.53401 -5.11102 33899 ft 461 kts
2026-05-09 07:55 38.59816 -5.11125 33889 ft 463 kts 358°
2026-05-09 07:55 38.66231 -5.11594 33887 ft 464 kts 356°
2026-05-09 07:56 38.72675 -5.12198 33884 ft 464 kts 356°
2026-05-09 07:56 38.79082 -5.12838 33882 ft 465 kts 356°
2026-05-09 07:57 38.85522 -5.13493 33881 ft 465 kts 355°
2026-05-09 07:57 38.91943 -5.14149 33898 ft 465 kts 355°
2026-05-09 07:58 38.98387 -5.14328 33877 ft 462 kts 12°
2026-05-09 07:58 39.01368 -5.12920 33892 ft 460 kts 26°
2026-05-09 07:58 39.04195 -5.11008 33877 ft 461 kts 30°
2026-05-09 07:59 39.09734 -5.06793 33875 ft 462 kts 32°
2026-05-09 07:59 39.15196 -5.02377 33874 ft 463 kts 33°
2026-05-09 08:00 39.20595 -4.97930 33875 ft 464 kts 33°
2026-05-09 08:00 39.26025 -4.93427 33876 ft 464 kts 33°
2026-05-09 08:01 39.31432 -4.88930 33877 ft 464 kts 33°
2026-05-09 08:01 39.36853 -4.84410 33878 ft 464 kts 33°
2026-05-09 08:02 39.42255 -4.79897 33893 ft 464 kts 33°
2026-05-09 08:02 39.47636 -4.75395 33903 ft 464 kts 33°
2026-05-09 08:03 39.53054 -4.70850 33902 ft 464 kts 33°
2026-05-09 08:03 39.58482 -4.66291 33903 ft 465 kts 33°
2026-05-09 08:04 39.63865 -4.61759 33903 ft 465 kts 33°
2026-05-09 08:04 39.69295 -4.57180 33903 ft 465 kts 33°
2026-05-09 08:05 39.74733 -4.52586 33903 ft 465 kts 33°
2026-05-09 08:05 39.80128 -4.48018 33904 ft 465 kts 33°
2026-05-09 08:06 39.85506 -4.43456 33908 ft 465 kts 33°
2026-05-09 08:06 39.90935 -4.38843 33909 ft 465 kts 33°
2026-05-09 08:07 39.96345 -4.34326 33897 ft 465 kts 28°
2026-05-09 08:07 40.02167 -4.30613 33910 ft 465 kts 26°
2026-05-09 08:08 40.07999 -4.27013 33910 ft 465 kts 26°
2026-05-09 08:08 40.13858 -4.23423 33909 ft 465 kts 26°
2026-05-09 08:09 40.19704 -4.19842 33910 ft 465 kts 26°
2026-05-09 08:09 40.25597 -4.16230 33910 ft 465 kts 26°
2026-05-09 08:10 40.31437 -4.12644 33911 ft 465 kts 26°
2026-05-09 08:10 40.37282 -4.09047 33911 ft 465 kts 26°
2026-05-09 08:11 40.43098 -4.05462 33920 ft 465 kts 26°
2026-05-09 08:11 40.48930 -4.01859 33922 ft 465 kts 26°
2026-05-09 08:12 40.57715 -3.96420 33928 ft 465 kts 26°
2026-05-09 08:12 40.63526 -3.92813 33932 ft 465 kts 26°
2026-05-09 08:13 40.69360 -3.89184 33939 ft 465 kts 26°
2026-05-09 08:13 40.75185 -3.85555 33939 ft 465 kts 26°
2026-05-09 08:14 40.81057 -3.81890 33938 ft 465 kts 26°
2026-05-09 08:14 40.86900 -3.78235 33938 ft 465 kts 26°
2026-05-09 08:15 40.92733 -3.74580 33933 ft 466 kts 26°
2026-05-09 08:15 40.98589 -3.70902 33930 ft 466 kts 26°
2026-05-09 08:16 41.04417 -3.67236 33927 ft 466 kts 26°
2026-05-09 08:16 41.10266 -3.63548 33925 ft 466 kts 26°
2026-05-09 08:17 41.16133 -3.59948 33928 ft 467 kts 22°
2026-05-09 08:17 41.22166 -3.56647 33929 ft 466 kts 22°
2026-05-09 08:18 41.28160 -3.53372 33929 ft 466 kts 22°
2026-05-09 08:18 41.34163 -3.50088 33834 ft 469 kts 22°
2026-05-09 08:19 41.37145 -3.48455 33130 ft 461 kts 22°
2026-05-09 08:19 41.40079 -3.46846 32324 ft 452 kts 22°
2026-05-09 08:19 41.42964 -3.45263 31519 ft 445 kts 22°
2026-05-09 08:19 41.45761 -3.43727 30727 ft 440 kts 22°
2026-05-09 08:20 41.48560 -3.42187 29925 ft 435 kts 22°
2026-05-09 08:20 41.51330 -3.40661 29124 ft 430 kts 22°
2026-05-09 08:20 41.54077 -3.39147 28319 ft 426 kts 22°
2026-05-09 08:20 41.56790 -3.37649 27221 ft 429 kts 22°
2026-05-09 08:21 41.59555 -3.36121 26017 ft 433 kts 22°
2026-05-09 08:21 41.62301 -3.34603 24830 ft 436 kts 23°
2026-05-09 08:21 41.65108 -3.33051 23603 ft 430 kts 23°
2026-05-09 08:21 41.67808 -3.31556 22402 ft 417 kts 23°
2026-05-09 08:22 41.70435 -3.30101 21197 ft 405 kts 23°
2026-05-09 08:22 41.72973 -3.28693 20002 ft 395 kts 23°
2026-05-09 08:22 41.75455 -3.27314 18805 ft 386 kts 23°
2026-05-09 08:22 41.77857 -3.25980 18140 ft 364 kts 23°
2026-05-09 08:23 41.80167 -3.24695 17064 ft 358 kts 23°
2026-05-09 08:23 41.82420 -3.23441 16139 ft 349 kts 23°
2026-05-09 08:23 41.84618 -3.22216 15215 ft 341 kts 23°
2026-05-09 08:23 41.86756 -3.21024 14298 ft 335 kts 23°
2026-05-09 08:24 41.88871 -3.19844 13390 ft 329 kts 23°
2026-05-09 08:24 41.90939 -3.18690 12569 ft 321 kts 23°
2026-05-09 08:24 41.92979 -3.17551 11882 ft 310 kts 23°
2026-05-09 08:24 41.94915 -3.16470 11279 ft 299 kts 23°
2026-05-09 08:25 41.96797 -3.15417 10849 ft 291 kts 23°
2026-05-09 08:25 41.98655 -3.14377 10475 ft 290 kts 23°
2026-05-09 08:25 42.00502 -3.13342 10138 ft 288 kts 23°
2026-05-09 08:25 42.02324 -3.12321 9940 ft 287 kts 23°
2026-05-09 08:26 42.04184 -3.11278 9832 ft 284 kts 23°
2026-05-09 08:26 42.05981 -3.10270 9832 ft 279 kts 23°
2026-05-09 08:26 42.07749 -3.09278 9830 ft 274 kts 23°
2026-05-09 08:26 42.09486 -3.08302 9829 ft 271 kts 23°
2026-05-09 08:27 42.11224 -3.07325 9828 ft 269 kts 23°
2026-05-09 08:27 42.12940 -3.06359 9826 ft 267 kts 23°
2026-05-09 08:27 42.14646 -3.05399 9824 ft 265 kts 23°
2026-05-09 08:27 42.16342 -3.04444 9821 ft 264 kts 23°
2026-05-09 08:28 42.18034 -3.03491 9818 ft 263 kts 23°
2026-05-09 08:28 42.19719 -3.02541 9818 ft 265 kts 23°
2026-05-09 08:28 42.21433 -3.01575 9818 ft 266 kts 23°
2026-05-09 08:28 42.23152 -3.00605 9820 ft 268 kts 23°
2026-05-09 08:29 42.24864 -2.99638 9819 ft 269 kts 23°
2026-05-09 08:29 42.26582 -2.98668 9818 ft 269 kts 23°
2026-05-09 08:29 42.28332 -2.97678 9800 ft 271 kts 23°
2026-05-09 08:29 42.30107 -2.96673 9451 ft 285 kts 23°
2026-05-09 08:30 42.31980 -2.95612 9080 ft 297 kts 23°
2026-05-09 08:30 42.33899 -2.94524 8712 ft 307 kts 23°
2026-05-09 08:30 42.35911 -2.93383 8337 ft 315 kts 23°
2026-05-09 08:30 42.37928 -2.92239 7963 ft 313 kts 23°
2026-05-09 08:31 42.39894 -2.91125 7589 ft 299 kts 23°
2026-05-09 08:31 42.41787 -2.90053 7208 ft 288 kts 23°
2026-05-09 08:31 42.43603 -2.89036 6826 ft 279 kts 22°
2026-05-09 08:31 42.45475 -2.88685 6416 ft 272 kts 354°
2026-05-09 08:32 42.47296 -2.89163 6051 ft 265 kts 346°
2026-05-09 08:32 42.49042 -2.89783 5938 ft 248 kts 344°
2026-05-09 08:32 42.52140 -2.91002 5936 ft 229 kts 344°
2026-05-09 08:33 42.53722 -2.91628 5942 ft 240 kts 343°
2026-05-09 08:33 42.55359 -2.92276 5942 ft 250 kts 343°
2026-05-09 08:33 42.57061 -2.92949 5942 ft 260 kts 343°
2026-05-09 08:33 42.58825 -2.93647 5941 ft 269 kts 343°
2026-05-09 08:34 42.60638 -2.94364 5938 ft 269 kts 343°
2026-05-09 08:34 42.62422 -2.95070 5937 ft 270 kts 344°
2026-05-09 08:34 42.64258 -2.95701 5915 ft 270 kts 355°
2026-05-09 08:34 42.66030 -2.95243 5933 ft 261 kts 29°
2026-05-09 08:35 42.67421 -2.93743 5946 ft 254 kts 44°
2026-05-09 08:35 42.68753 -2.92138 5936 ft 250 kts 41°
2026-05-09 08:35 42.70084 -2.90642 5819 ft 252 kts 40°
2026-05-09 08:35 42.71489 -2.89133 5493 ft 261 kts 38°
2026-05-09 08:36 42.72949 -2.87616 5146 ft 268 kts 38°
2026-05-09 08:36 42.74450 -2.86095 4783 ft 268 kts 37°
2026-05-09 08:36 42.75926 -2.84620 4417 ft 261 kts 37°
2026-05-09 08:36 42.77356 -2.83204 4064 ft 251 kts 37°
2026-05-09 08:37 42.78749 -2.81831 3720 ft 239 kts 37°
2026-05-09 08:37 42.80075 -2.80524 3412 ft 227 kts 37°
2026-05-09 08:37 42.81329 -2.79289 3097 ft 216 kts 37°
2026-05-09 08:37 42.82516 -2.78117 2805 ft 206 kts 37°
2026-05-09 08:38 42.83664 -2.76987 2526 ft 198 kts 37°
2026-05-09 08:38 42.84735 -2.75933 2275 ft 185 kts 37°
2026-05-09 08:38 42.85767 -2.74932 2019 ft 175 kts 36°
2026-05-09 08:38 42.86720 -2.74005 1787 ft 165 kts 38°
2026-05-09 08:39 42.87613 -2.73084 1686 ft 148 kts 31°
2026-05-09 08:39 42.88115 -2.72616 1686 ft 31 kts 36°
2026-05-09 08:39 42.88280 -2.72454 1686 ft 25 kts 36°
2026-05-09 08:39 42.88416 -2.72320 1686 ft 21 kts 34°
2026-05-09 08:40 42.88532 -2.72214 1686 ft 18 kts 32°
2026-05-09 08:40 42.88640 -2.72166 1686 ft 14 kts
2026-05-09 08:40 42.88731 -2.72199 1686 ft 13 kts 326°
2026-05-09 08:40 42.88734 -2.72298 1686 ft 12 kts 216°
2026-05-09 08:41 42.88665 -2.72370 1686 ft 12 kts 217°
2026-05-09 08:41 42.88596 -2.72443 1686 ft 12 kts 217°
2026-05-09 08:41 42.88521 -2.72522 1686 ft 16 kts 217°
2026-05-09 08:41 42.88413 -2.72625 1686 ft 21 kts 214°
2026-05-09 08:42 42.88279 -2.72755 1686 ft 22 kts 216°
2026-05-09 08:42 42.88231 -2.72824 1686 ft 10 kts 256°
2026-05-09 08:42 42.88260 -2.72922 1686 ft 12 kts 306°
2026-05-09 08:42 42.88290 -2.72978 1686 ft 3 kts 305°
2026-05-09 08:43 42.88302 -2.73017 1686 ft 5 kts 278°
2026-05-09 08:43 42.88309 -2.73056 1686 ft 0 kts 296°